createdAt,value
2022-11-10T00:03:36.294Z,6.75
2022-11-10T00:07:38.404Z,6.74
2022-11-10T00:11:40.189Z,6.69
2022-11-10T00:16:00.465Z,6.64
2022-11-10T00:20:02.220Z,6.60
2022-11-10T00:24:03.776Z,6.55
2022-11-10T00:28:05.214Z,6.49
2022-11-10T00:36:34.843Z,6.31
2022-11-10T00:40:36.329Z,6.31
2022-11-10T00:44:37.661Z,6.27
2022-11-10T00:48:38.969Z,6.25
2022-11-10T00:52:58.844Z,6.19
2022-11-10T00:57:20.450Z,6.20
2022-11-10T01:01:24.968Z,6.16
2022-11-10T01:05:26.292Z,6.10
2022-11-10T01:09:27.543Z,6.03
2022-11-10T01:13:29.348Z,5.89
2022-11-10T01:17:30.787Z,5.84
2022-11-10T01:21:32.087Z,5.76
2022-11-10T01:25:33.412Z,5.74
2022-11-10T01:29:34.740Z,5.70
2022-11-10T01:33:36.640Z,5.71
2022-11-10T01:37:38.039Z,5.65
2022-11-10T01:41:39.484Z,5.56
2022-11-10T01:45:46.518Z,5.55
2022-11-10T01:49:48.026Z,5.50
2022-11-10T01:53:51.140Z,5.46
2022-11-10T01:57:52.787Z,5.37
2022-11-10T02:01:56.375Z,5.38
2022-11-10T02:05:58.652Z,5.36
2022-11-10T02:10:02.000Z,5.37
2022-11-10T02:14:03.533Z,5.43
2022-11-10T02:18:04.857Z,5.48
2022-11-10T02:22:06.220Z,5.53
2022-11-10T02:26:07.649Z,5.54
2022-11-10T02:30:09.164Z,5.61
2022-11-10T02:34:10.655Z,5.66
2022-11-10T02:38:12.303Z,5.73
2022-11-10T02:42:13.551Z,5.80
2022-11-10T02:46:15.707Z,5.85
2022-11-10T02:50:17.116Z,5.95
2022-11-10T02:54:18.468Z,6.04
2022-11-10T02:58:19.728Z,6.10
2022-11-10T03:02:21.087Z,6.16
2022-11-10T03:06:22.314Z,6.20
2022-11-10T03:10:24.309Z,6.26
2022-11-10T03:14:25.559Z,6.33
2022-11-10T03:18:27.384Z,6.39
2022-11-10T03:22:28.624Z,6.45
2022-11-10T03:26:29.899Z,6.49
2022-11-10T03:30:31.367Z,6.55
2022-11-10T03:34:32.657Z,6.64
2022-11-10T03:38:33.904Z,6.72
2022-11-10T03:42:35.169Z,6.79
2022-11-10T03:46:36.447Z,6.85
2022-11-10T03:50:37.725Z,6.90
2022-11-10T03:54:38.964Z,6.95
2022-11-10T03:58:40.523Z,6.98
2022-11-10T04:02:41.880Z,7.05
2022-11-10T04:07:02.020Z,7.09
2022-11-10T04:11:03.484Z,7.15
2022-11-10T04:15:24.287Z,7.23
2022-11-10T04:19:25.856Z,7.31
2022-11-10T04:23:31.652Z,7.44
2022-11-10T04:27:32.928Z,7.57
2022-11-10T04:31:37.276Z,7.63
2022-11-10T04:35:38.594Z,7.69
2022-11-10T04:39:40.043Z,7.73
2022-11-10T04:43:41.723Z,7.75
2022-11-10T04:47:43.009Z,7.81
2022-11-10T04:51:44.269Z,7.88
2022-11-10T04:55:46.135Z,7.96
2022-11-10T04:59:47.367Z,8.02
2022-11-10T05:03:49.263Z,8.06
2022-11-10T05:07:50.597Z,8.10
2022-11-10T05:11:51.857Z,8.14
2022-11-10T05:15:53.319Z,8.19
2022-11-10T05:19:54.856Z,8.21
2022-11-10T05:23:56.087Z,8.20
2022-11-10T05:27:57.604Z,8.22
2022-11-10T05:31:58.861Z,8.23
2022-11-10T05:36:01.043Z,8.27
2022-11-10T05:40:02.625Z,8.27
2022-11-10T05:44:04.248Z,8.26
2022-11-10T05:48:05.611Z,8.28
2022-11-10T05:52:06.903Z,8.31
2022-11-10T05:56:08.223Z,8.29
2022-11-10T06:00:10.084Z,8.33
2022-11-10T06:04:11.310Z,8.24
2022-11-10T06:08:13.280Z,8.26
2022-11-10T06:12:14.988Z,8.24
2022-11-10T06:16:16.450Z,8.28
2022-11-10T06:20:18.206Z,8.31
2022-11-10T06:24:19.799Z,8.31
2022-11-10T06:28:21.066Z,8.34
2022-11-10T06:32:22.383Z,8.37
2022-11-10T06:36:23.736Z,8.39
2022-11-10T06:40:25.422Z,8.41
2022-11-10T06:44:26.827Z,8.41
2022-11-10T06:48:28.150Z,8.40
2022-11-10T06:52:31.470Z,8.40
2022-11-10T06:56:32.792Z,8.42
2022-11-10T07:00:34.027Z,8.43
2022-11-10T07:04:35.357Z,8.44
2022-11-10T07:08:36.690Z,8.45
2022-11-10T07:12:38.037Z,8.44
2022-11-10T07:16:39.303Z,8.48
2022-11-10T07:20:41.028Z,8.50
2022-11-10T07:24:42.340Z,8.54
2022-11-10T07:28:43.947Z,8.56
2022-11-10T07:32:45.179Z,8.59
2022-11-10T07:36:46.607Z,8.62
2022-11-10T07:40:50.739Z,8.67
2022-11-10T07:44:52.004Z,8.72
2022-11-10T07:48:53.506Z,8.78
2022-11-10T07:53:05.097Z,8.84
2022-11-10T07:57:06.582Z,8.91
2022-11-10T08:01:07.900Z,8.96
2022-11-10T08:05:09.264Z,9.01
2022-11-10T08:09:10.547Z,9.06
2022-11-10T08:13:13.136Z,9.08
2022-11-10T08:17:15.125Z,9.14
2022-11-10T08:21:16.417Z,9.15
2022-11-10T08:25:17.722Z,9.14
2022-11-10T08:29:18.957Z,9.17
2022-11-10T08:33:22.141Z,9.21
2022-11-10T08:37:24.190Z,9.26
2022-11-10T08:41:25.599Z,9.31
2022-11-10T08:45:27.220Z,9.34
2022-11-10T08:49:28.937Z,9.32
2022-11-10T08:53:30.229Z,9.31
2022-11-10T08:57:31.581Z,9.29
2022-11-10T09:01:32.894Z,9.28
2022-11-10T09:05:36.993Z,9.31
2022-11-10T09:09:38.264Z,9.35
2022-11-10T09:13:39.872Z,9.36
2022-11-10T09:17:41.535Z,9.41
2022-11-10T09:21:42.856Z,9.47
2022-11-10T09:25:49.032Z,9.50
2022-11-10T09:29:50.821Z,9.49
2022-11-10T09:33:52.073Z,9.50
2022-11-10T09:37:53.540Z,9.49
2022-11-10T09:41:54.856Z,9.48
2022-11-10T09:45:57.815Z,9.47
2022-11-10T09:50:00.914Z,9.40
2022-11-10T09:54:04.394Z,9.44
2022-11-10T09:58:05.815Z,9.48
2022-11-10T10:02:09.948Z,9.53
2022-11-10T10:06:12.783Z,9.51
2022-11-10T10:10:17.883Z,9.44
2022-11-10T10:14:38.215Z,9.42
2022-11-10T10:18:39.560Z,9.42
2022-11-10T10:22:59.845Z,9.45
2022-11-10T10:27:04.682Z,9.54
2022-11-10T10:31:18.616Z,9.60
2022-11-10T10:35:20.582Z,9.65
2022-11-10T10:39:21.866Z,9.62
2022-11-10T10:43:23.677Z,9.64
2022-11-10T10:47:36.153Z,9.67
2022-11-10T10:51:37.718Z,9.67
2022-11-10T10:55:39.671Z,9.69
2022-11-10T10:59:41.040Z,9.66
2022-11-10T11:03:43.879Z,9.73
2022-11-10T11:07:55.790Z,9.75
2022-11-10T11:12:02.047Z,9.73
2022-11-10T11:16:05.662Z,9.77
2022-11-10T11:20:14.107Z,9.85
2022-11-10T11:24:30.724Z,9.82
2022-11-10T11:28:40.852Z,9.86
2022-11-10T11:32:54.754Z,9.92
2022-11-10T11:36:56.073Z,9.93
2022-11-10T11:41:16.231Z,9.99
2022-11-10T11:45:17.553Z,10.07
2022-11-10T11:49:21.919Z,10.09
2022-11-10T11:53:26.273Z,10.13
2022-11-10T11:57:34.415Z,10.11
2022-11-10T12:01:38.390Z,10.12
2022-11-10T12:05:58.574Z,10.13
2022-11-10T12:10:15.269Z,10.14
2022-11-10T12:14:31.746Z,10.18
2022-11-10T12:18:38.412Z,10.24
2022-11-10T12:22:42.755Z,10.29
2022-11-10T12:26:55.661Z,10.31
2022-11-10T12:31:01.950Z,10.36
2022-11-10T12:35:21.467Z,10.40
2022-11-10T12:39:38.030Z,10.41
2022-11-10T12:43:56.533Z,10.42
2022-11-10T12:47:59.029Z,10.34
2022-11-10T12:52:09.008Z,10.35
2022-11-10T12:56:17.731Z,10.31
2022-11-10T13:00:22.523Z,10.31
2022-11-10T13:04:29.729Z,10.35
2022-11-10T13:08:33.212Z,10.39
2022-11-10T13:12:34.625Z,10.41
2022-11-10T13:16:38.824Z,10.46
2022-11-10T13:20:50.811Z,10.51
2022-11-10T13:24:52.479Z,10.48
2022-11-10T13:28:58.252Z,10.47
2022-11-10T13:33:19.487Z,10.52
2022-11-10T13:37:30.118Z,10.49
2022-11-10T13:41:33.292Z,10.38
2022-11-10T13:45:40.926Z,10.31
2022-11-10T13:49:51.445Z,10.36
2022-11-10T13:54:05.810Z,10.42
2022-11-10T13:58:11.996Z,10.47
2022-11-10T14:02:34.303Z,10.54
2022-11-10T14:06:40.406Z,10.55
2022-11-10T14:10:44.790Z,10.55
2022-11-10T14:14:49.362Z,10.58
2022-11-10T14:19:00.239Z,10.60
2022-11-10T14:23:05.021Z,10.51
2022-11-10T14:27:08.312Z,10.41
2022-11-10T14:31:16.228Z,10.44
2022-11-10T14:35:22.479Z,10.44
2022-11-10T14:39:27.959Z,10.48
2022-11-10T14:43:37.433Z,10.54
2022-11-10T14:47:38.939Z,10.56
2022-11-10T14:51:40.505Z,10.54
2022-11-10T14:55:44.051Z,10.56
2022-11-10T14:59:46.010Z,10.58
2022-11-10T15:03:47.908Z,10.59
2022-11-10T15:07:52.811Z,10.59
2022-11-10T15:12:06.212Z,10.59
2022-11-10T15:16:26.353Z,10.59
2022-11-10T15:20:27.628Z,10.57
2022-11-10T15:24:29.384Z,10.56
2022-11-10T15:28:32.027Z,10.56
2022-11-10T15:32:43.854Z,10.50
2022-11-10T15:36:45.319Z,10.50
2022-11-10T15:40:47.642Z,10.50
2022-11-10T15:44:48.948Z,10.47
2022-11-10T15:48:51.406Z,10.46
2022-11-10T15:52:52.705Z,10.40
2022-11-10T15:56:54.064Z,10.38
2022-11-10T16:00:55.370Z,10.35
2022-11-10T16:04:59.990Z,10.27
2022-11-10T16:09:01.610Z,10.20
2022-11-10T16:13:03.541Z,10.16
2022-11-10T16:17:05.817Z,10.12
2022-11-10T16:21:14.730Z,9.95
2022-11-10T16:25:23.787Z,9.91
2022-11-10T16:29:28.283Z,9.84
2022-11-10T16:33:29.652Z,9.77
2022-11-10T16:37:34.840Z,9.77
2022-11-10T16:41:36.627Z,9.73
2022-11-10T16:45:42.000Z,9.69
2022-11-10T16:49:44.940Z,9.62
2022-11-10T16:53:46.921Z,9.54
2022-11-10T16:57:48.660Z,9.45
2022-11-10T17:01:50.394Z,9.36
2022-11-10T17:05:52.035Z,9.30
2022-11-10T17:09:53.748Z,9.24
2022-11-10T17:13:55.308Z,9.22
2022-11-10T17:17:58.861Z,9.17
2022-11-10T17:22:02.314Z,9.05
2022-11-10T17:26:03.804Z,9.06
2022-11-10T17:30:05.493Z,9.04
2022-11-10T17:34:06.819Z,9.02
2022-11-10T17:38:10.767Z,9.00
2022-11-10T17:42:13.499Z,8.99
2022-11-10T17:46:15.240Z,8.95
2022-11-10T17:50:17.599Z,8.96
2022-11-10T17:54:18.895Z,8.95
2022-11-10T17:58:20.722Z,8.98
2022-11-10T18:02:21.981Z,8.99
2022-11-10T18:06:23.308Z,9.04
2022-11-10T18:10:24.655Z,9.04
2022-11-10T18:14:26.228Z,9.08
2022-11-10T18:18:27.540Z,9.07
2022-11-10T18:22:28.944Z,9.07
2022-11-10T18:26:30.196Z,9.05
2022-11-10T18:30:35.091Z,9.06
2022-11-10T18:34:36.727Z,9.05
2022-11-10T18:38:38.137Z,9.07
2022-11-10T18:42:39.452Z,9.09
2022-11-10T18:46:41.820Z,9.11
2022-11-10T18:50:43.859Z,9.14
2022-11-10T18:54:53.580Z,9.15
2022-11-10T18:58:56.964Z,9.16
2022-11-10T19:02:59.210Z,9.14
2022-11-10T19:07:00.747Z,9.14
2022-11-10T19:11:05.676Z,9.15
2022-11-10T19:15:08.056Z,9.15
2022-11-10T19:19:10.028Z,9.18
2022-11-10T19:23:11.324Z,9.19
2022-11-10T19:27:13.808Z,9.22
2022-11-10T19:31:16.467Z,9.21
2022-11-10T19:35:17.907Z,9.22
2022-11-10T19:39:19.281Z,9.23
2022-11-10T19:43:21.127Z,9.24
2022-11-10T19:47:22.784Z,9.24
2022-11-10T19:51:24.679Z,9.19
2022-11-10T19:55:25.972Z,9.13
2022-11-10T19:59:27.275Z,9.08
2022-11-10T20:03:29.219Z,9.08
2022-11-10T20:07:49.787Z,9.02
2022-11-10T20:11:51.133Z,9.01
2022-11-10T20:15:53.758Z,8.98
2022-11-10T20:19:55.329Z,8.93
2022-11-10T20:23:58.704Z,8.89
2022-11-10T20:28:06.174Z,8.91
2022-11-10T20:32:07.961Z,8.90
2022-11-10T20:36:20.392Z,8.90
2022-11-10T20:40:43.460Z,8.84
2022-11-10T20:44:43.518Z,8.81
2022-11-10T20:48:45.791Z,8.86
2022-11-10T20:52:47.132Z,8.88
2022-11-10T20:56:48.478Z,8.83
2022-11-10T21:00:49.949Z,8.81
2022-11-10T21:04:51.348Z,8.84
2022-11-10T21:08:53.455Z,8.83
2022-11-10T21:12:54.746Z,8.81
2022-11-10T21:16:57.875Z,8.79
2022-11-10T21:20:59.336Z,8.76
2022-11-10T21:25:00.688Z,8.73
2022-11-10T21:29:02.398Z,8.78
2022-11-10T21:33:04.949Z,8.78
2022-11-10T21:37:06.534Z,8.80
2022-11-10T21:41:07.881Z,8.78
2022-11-10T21:45:09.841Z,8.77
2022-11-10T21:49:11.207Z,8.68
2022-11-10T21:53:12.515Z,8.64
2022-11-10T21:57:13.934Z,8.64
2022-11-10T22:01:19.178Z,8.55
2022-11-10T22:05:20.608Z,8.56
2022-11-10T22:09:41.870Z,8.58
2022-11-10T22:14:01.732Z,8.53
2022-11-10T22:18:22.083Z,8.55
2022-11-10T22:22:23.343Z,8.59
2022-11-10T22:26:24.790Z,8.61
2022-11-10T22:30:26.044Z,8.62
2022-11-10T22:34:27.809Z,8.61
2022-11-10T22:38:29.934Z,8.60
2022-11-10T22:42:50.666Z,8.59
2022-11-10T22:46:52.262Z,8.60
2022-11-10T22:50:56.967Z,8.58
2022-11-10T22:54:58.393Z,8.55
2022-11-10T22:59:00.415Z,8.53
2022-11-10T23:03:01.812Z,8.44
2022-11-10T23:07:03.137Z,8.44
2022-11-10T23:11:06.004Z,8.46
2022-11-10T23:15:07.737Z,8.39
2022-11-10T23:19:09.973Z,8.33
2022-11-10T23:23:11.340Z,8.32
2022-11-10T23:27:12.607Z,8.29
2022-11-10T23:31:15.292Z,8.27
2022-11-10T23:35:16.645Z,8.20
2022-11-10T23:39:19.104Z,8.19
2022-11-10T23:43:20.887Z,8.18
2022-11-10T23:47:22.484Z,8.17
2022-11-10T23:51:25.647Z,8.19
2022-11-10T23:55:26.961Z,8.20
2022-11-10T23:59:28.265Z,8.24
